createdAt,value
2023-01-11T00:02:04.824Z,23.05
2023-01-11T00:04:41.215Z,22.60
2023-01-11T00:07:14.570Z,23.55
2023-01-11T00:09:42.821Z,21.98
2023-01-11T00:12:14.321Z,23.40
2023-01-11T00:15:10.946Z,22.30
2023-01-11T00:17:44.084Z,21.23
2023-01-11T00:20:13.044Z,21.55
2023-01-11T00:22:41.299Z,21.08
2023-01-11T00:25:16.542Z,21.17
2023-01-11T00:27:47.257Z,21.25
2023-01-11T00:30:15.920Z,20.80
2023-01-11T00:32:46.619Z,22.23
2023-01-11T00:35:15.057Z,21.38
2023-01-11T00:37:43.699Z,22.00
2023-01-11T00:40:12.443Z,22.15
2023-01-11T00:42:58.078Z,22.40
2023-01-11T00:45:46.040Z,21.02
2023-01-11T00:48:15.824Z,21.05
2023-01-11T00:50:45.298Z,21.80
2023-01-11T00:53:18.314Z,21.08
2023-01-11T00:55:46.342Z,21.25
2023-01-11T00:58:14.408Z,20.48
2023-01-11T01:00:42.503Z,20.77
2023-01-11T01:03:10.749Z,21.80
2023-01-11T01:05:43.414Z,22.63
2023-01-11T01:08:11.563Z,21.85
2023-01-11T01:10:39.769Z,21.35
2023-01-11T01:13:25.207Z,21.27
2023-01-11T01:15:58.523Z,21.02
2023-01-11T01:18:26.714Z,21.00
2023-01-11T01:20:58.920Z,21.58
2023-01-11T01:23:27.022Z,20.77
2023-01-11T01:25:55.038Z,20.15
2023-01-11T01:28:23.097Z,21.25
2023-01-11T01:30:52.338Z,21.00
2023-01-11T01:33:20.549Z,20.95
2023-01-11T01:35:48.889Z,21.40
2023-01-11T01:38:23.072Z,21.00
2023-01-11T01:40:51.213Z,21.50
2023-01-11T01:43:19.970Z,20.73
2023-01-11T01:45:50.094Z,21.02
2023-01-11T01:48:22.080Z,20.48
2023-01-11T01:50:53.641Z,20.80
2023-01-11T01:53:27.091Z,21.38
2023-01-11T01:55:59.644Z,20.50
2023-01-11T01:58:32.551Z,21.20
2023-01-11T02:01:24.244Z,20.10
2023-01-11T02:03:53.566Z,20.08
2023-01-11T02:06:24.229Z,20.25
2023-01-11T02:09:04.038Z,19.73
2023-01-11T02:11:43.301Z,19.73
2023-01-11T02:14:18.553Z,19.92
2023-01-11T02:16:47.042Z,18.92
2023-01-11T02:19:25.319Z,18.70
2023-01-11T02:22:18.448Z,18.63
2023-01-11T02:25:05.970Z,18.25
2023-01-11T02:27:53.618Z,18.83
2023-01-11T02:30:29.690Z,18.65
2023-01-11T02:33:08.132Z,19.50
2023-01-11T02:35:56.413Z,18.90
2023-01-11T02:38:32.253Z,19.13
2023-01-11T02:41:06.673Z,18.98
2023-01-11T02:44:00.282Z,18.48
2023-01-11T02:46:37.927Z,17.88
2023-01-11T02:49:10.631Z,17.65
2023-01-11T02:51:44.525Z,18.00
2023-01-11T02:54:14.691Z,17.85
2023-01-11T02:56:45.525Z,18.15
2023-01-11T02:59:18.320Z,18.73
2023-01-11T03:01:48.795Z,18.73
2023-01-11T03:04:25.173Z,18.88
2023-01-11T03:07:12.072Z,19.92
2023-01-11T03:09:51.602Z,20.42
2023-01-11T03:12:54.659Z,19.35
2023-01-11T03:15:50.236Z,20.02
2023-01-11T03:18:32.382Z,18.90
2023-01-11T03:21:13.825Z,22.67
2023-01-11T03:23:54.934Z,19.90
2023-01-11T03:26:34.608Z,19.85
2023-01-11T03:29:12.077Z,20.52
2023-01-11T03:31:46.081Z,21.00
2023-01-11T03:34:19.572Z,24.48
2023-01-11T03:36:53.869Z,24.42
2023-01-11T03:39:28.491Z,22.48
2023-01-11T03:42:01.117Z,23.92
2023-01-11T03:44:34.200Z,25.98
2023-01-11T03:47:06.268Z,24.27
2023-01-11T03:49:43.840Z,24.80
2023-01-11T03:52:15.946Z,26.38
2023-01-11T03:54:46.850Z,21.30
2023-01-11T03:57:19.101Z,21.48
2023-01-11T03:59:47.502Z,25.73
2023-01-11T04:02:20.190Z,26.52
2023-01-11T04:04:50.374Z,28.23
2023-01-11T04:07:18.959Z,27.98
2023-01-11T04:09:47.373Z,26.80
2023-01-11T04:12:15.810Z,28.45
2023-01-11T04:14:47.399Z,27.52
2023-01-11T04:17:15.685Z,27.67
2023-01-11T04:19:43.680Z,29.95
2023-01-11T04:22:13.174Z,31.98
2023-01-11T04:24:41.290Z,23.20
2023-01-11T04:27:13.301Z,27.23
2023-01-11T04:29:43.557Z,25.35
2023-01-11T04:32:11.738Z,27.65
2023-01-11T04:34:40.173Z,27.13
2023-01-11T04:37:08.644Z,33.83
2023-01-11T04:39:39.004Z,29.30
2023-01-11T04:42:23.588Z,25.98
2023-01-11T04:44:52.818Z,28.40
2023-01-11T04:47:22.932Z,28.50
2023-01-11T04:49:51.139Z,27.02
2023-01-11T04:52:21.257Z,27.83
2023-01-11T04:54:54.111Z,24.98
2023-01-11T04:57:25.489Z,24.02
2023-01-11T04:59:53.512Z,23.90
2023-01-11T05:02:21.613Z,26.60
2023-01-11T05:04:49.708Z,25.13
2023-01-11T05:07:17.822Z,31.08
2023-01-11T05:09:46.089Z,27.77
2023-01-11T05:12:16.066Z,24.60
2023-01-11T05:14:45.469Z,24.75
2023-01-11T05:17:15.143Z,29.27
2023-01-11T05:19:43.840Z,24.48
2023-01-11T05:22:12.192Z,25.52
2023-01-11T05:24:40.412Z,23.88
2023-01-11T05:27:09.291Z,27.50
2023-01-11T05:29:39.247Z,24.25
2023-01-11T05:32:07.513Z,24.75
2023-01-11T05:34:35.593Z,25.95
2023-01-11T05:37:03.915Z,23.92
2023-01-11T05:39:32.041Z,26.08
2023-01-11T05:42:00.085Z,24.17
2023-01-11T05:44:45.334Z,27.83
2023-01-11T05:47:14.800Z,27.42
2023-01-11T05:49:43.381Z,25.58
2023-01-11T05:52:11.637Z,26.05
2023-01-11T05:54:40.019Z,25.95
2023-01-11T05:57:11.647Z,25.02
2023-01-11T05:59:39.956Z,24.80
2023-01-11T06:02:08.140Z,26.95
2023-01-11T06:04:38.854Z,24.70
2023-01-11T06:07:10.047Z,33.58
2023-01-11T06:09:38.288Z,25.25
2023-01-11T06:12:06.811Z,24.67
2023-01-11T06:14:37.921Z,25.98
2023-01-11T06:17:06.280Z,24.73
2023-01-11T06:19:34.551Z,23.55
2023-01-11T06:22:05.543Z,23.45
2023-01-11T06:24:33.738Z,24.52
2023-01-11T06:27:01.834Z,25.52
2023-01-11T06:29:30.025Z,25.17
2023-01-11T06:31:58.786Z,26.63
2023-01-11T06:34:27.495Z,26.92
2023-01-11T06:36:55.551Z,24.67
2023-01-11T06:39:25.091Z,24.30
2023-01-11T06:41:53.174Z,24.70
2023-01-11T06:44:21.543Z,25.65
2023-01-11T06:46:52.031Z,24.63
2023-01-11T06:49:20.398Z,26.95
2023-01-11T06:51:48.774Z,27.58
2023-01-11T06:54:22.031Z,25.05
2023-01-11T06:56:51.640Z,28.70
2023-01-11T06:59:19.794Z,26.30
2023-01-11T07:01:48.461Z,25.13
2023-01-11T07:04:18.817Z,26.67
2023-01-11T07:06:46.915Z,25.30
2023-01-11T07:09:15.409Z,25.10
2023-01-11T07:11:43.748Z,28.10
2023-01-11T07:14:20.015Z,26.33
2023-01-11T07:16:48.299Z,27.45
2023-01-11T07:19:18.157Z,32.78
2023-01-11T07:21:46.977Z,28.48
2023-01-11T07:24:17.236Z,28.88
2023-01-11T07:26:47.652Z,29.90
2023-01-11T07:29:17.628Z,28.08
2023-01-11T07:31:47.885Z,27.80
2023-01-11T07:34:16.572Z,27.38
2023-01-11T07:36:45.063Z,28.65
2023-01-11T07:39:13.587Z,25.88
2023-01-11T07:41:58.893Z,27.48
2023-01-11T07:44:28.578Z,33.65
2023-01-11T07:46:57.181Z,34.10
2023-01-11T07:49:25.601Z,28.35
2023-01-11T07:51:56.473Z,27.85
2023-01-11T07:54:25.929Z,29.60
2023-01-11T07:56:54.189Z,31.55
2023-01-11T07:59:22.206Z,31.67
2023-01-11T08:01:51.809Z,28.55
2023-01-11T08:04:20.144Z,27.08
2023-01-11T08:06:48.546Z,30.58
2023-01-11T08:09:17.159Z,31.95
2023-01-11T08:12:03.191Z,29.45
2023-01-11T08:14:47.866Z,27.90
2023-01-11T08:17:17.952Z,26.05
2023-01-11T08:19:46.272Z,31.95
2023-01-11T08:22:17.441Z,32.38
2023-01-11T08:24:45.766Z,30.15
2023-01-11T08:27:14.373Z,31.95
2023-01-11T08:29:44.316Z,30.98
2023-01-11T08:32:15.799Z,29.88
2023-01-11T08:34:47.872Z,30.25
2023-01-11T08:37:16.059Z,28.13
2023-01-11T08:39:44.133Z,29.60
2023-01-11T08:42:12.302Z,27.38
2023-01-11T08:44:40.467Z,29.23
2023-01-11T08:47:08.784Z,30.20
2023-01-11T08:49:36.899Z,24.67
2023-01-11T08:52:07.338Z,29.05
2023-01-11T08:54:35.599Z,26.27
2023-01-11T08:57:03.829Z,28.02
2023-01-11T08:59:31.853Z,27.65
2023-01-11T09:02:00.245Z,27.13
2023-01-11T09:04:28.624Z,26.40
2023-01-11T09:06:56.788Z,28.20
2023-01-11T09:09:26.292Z,26.08
2023-01-11T09:12:00.523Z,24.83
2023-01-11T09:14:29.592Z,30.65
2023-01-11T09:16:57.973Z,27.15
2023-01-11T09:19:26.808Z,27.35
2023-01-11T09:21:58.475Z,30.52
2023-01-11T09:24:31.836Z,26.45
2023-01-11T09:27:00.500Z,27.88
2023-01-11T09:29:28.816Z,26.48
2023-01-11T09:31:57.182Z,27.80
2023-01-11T09:34:27.562Z,30.25
2023-01-11T09:36:56.795Z,30.55
2023-01-11T09:39:27.600Z,33.08
2023-01-11T09:42:32.251Z,32.83
2023-01-11T09:45:07.340Z,30.02
2023-01-11T09:47:41.110Z,32.25
2023-01-11T09:50:17.776Z,30.95
2023-01-11T09:52:49.898Z,34.63
2023-01-11T09:55:24.610Z,33.67
2023-01-11T09:58:11.210Z,28.40
2023-01-11T10:00:51.796Z,28.75
2023-01-11T10:03:57.375Z,30.98
2023-01-11T10:06:30.274Z,29.40
2023-01-11T10:18:34.254Z,25.95
2023-01-11T10:18:49.395Z,26.70
2023-01-11T10:21:28.896Z,25.65
2023-01-11T10:24:03.252Z,25.38
2023-01-11T10:26:39.716Z,24.25
2023-01-11T10:29:39.859Z,30.13
2023-01-11T10:32:40.041Z,25.63
2023-01-11T10:35:29.273Z,31.45
2023-01-11T10:38:23.461Z,24.10
2023-01-11T10:41:08.523Z,29.48
2023-01-11T10:43:42.733Z,25.38
2023-01-11T10:46:14.420Z,25.33
2023-01-11T10:48:46.209Z,25.90
2023-01-11T10:51:27.289Z,25.50
2023-01-11T10:54:12.486Z,24.63
2023-01-11T10:57:02.922Z,26.27
2023-01-11T10:59:58.543Z,23.63
2023-01-11T11:03:02.632Z,24.45
2023-01-11T11:05:42.360Z,25.70
2023-01-11T11:08:15.215Z,23.73
2023-01-11T11:10:49.826Z,24.17
2023-01-11T11:13:24.911Z,24.60
2023-01-11T11:16:02.463Z,27.42
2023-01-11T11:18:31.024Z,26.38
2023-01-11T11:21:17.231Z,23.73
2023-01-11T11:23:48.465Z,23.50
2023-01-11T11:26:17.187Z,26.52
2023-01-11T11:29:01.870Z,24.88
2023-01-11T11:31:34.236Z,22.33
2023-01-11T11:34:08.691Z,25.17
2023-01-11T11:36:45.712Z,22.02
2023-01-11T11:39:21.848Z,22.48
2023-01-11T11:41:51.967Z,20.65
2023-01-11T11:44:25.419Z,24.48
2023-01-11T11:47:00.287Z,36.13
2023-01-11T11:49:30.429Z,27.92
2023-01-11T11:52:06.235Z,22.60
2023-01-11T11:54:49.683Z,25.10
2023-01-11T11:57:28.574Z,23.60
2023-01-11T12:00:21.909Z,21.73
2023-01-11T12:06:49.422Z,24.33
2023-01-11T12:16:22.217Z,25.67
2023-01-11T12:18:50.309Z,25.98
2023-01-11T12:21:23.246Z,24.73
2023-01-11T12:24:11.751Z,26.58
2023-01-11T12:26:48.248Z,25.35
2023-01-11T12:29:44.760Z,25.27
2023-01-11T12:32:30.541Z,25.30
2023-01-11T12:35:28.005Z,24.98
2023-01-11T12:38:13.584Z,26.20
2023-01-11T12:40:53.445Z,26.20
2023-01-11T12:43:33.051Z,25.80
2023-01-11T12:46:16.363Z,27.08
2023-01-11T12:49:07.490Z,26.98
2023-01-11T12:52:05.938Z,27.92
2023-01-11T12:54:53.912Z,26.83
2023-01-11T12:57:30.359Z,27.67
2023-01-11T13:00:23.550Z,26.02
2023-01-11T13:03:10.497Z,26.40
2023-01-11T13:06:00.597Z,26.17
2023-01-11T13:08:40.851Z,29.33
2023-01-11T13:11:35.049Z,26.67
2023-01-11T13:14:17.462Z,26.60
2023-01-11T13:16:54.598Z,25.02
2023-01-11T13:19:29.215Z,27.58
2023-01-11T13:21:59.319Z,24.60
2023-01-11T13:24:30.739Z,27.63
2023-01-11T13:27:03.726Z,25.52
2023-01-11T13:29:34.943Z,29.83
2023-01-11T13:32:10.373Z,24.48
2023-01-11T13:34:43.223Z,28.80
2023-01-11T13:37:16.854Z,24.65
2023-01-11T13:39:49.956Z,29.27
2023-01-11T13:42:23.373Z,24.55
2023-01-11T13:44:54.600Z,29.30
2023-01-11T13:47:28.793Z,25.35
2023-01-11T13:50:05.949Z,25.30
2023-01-11T13:52:49.867Z,29.48
2023-01-11T13:55:25.968Z,34.92
2023-01-11T13:58:01.317Z,27.73
2023-01-11T14:00:34.866Z,27.83
2023-01-11T14:03:13.624Z,28.90
2023-01-11T14:05:52.970Z,29.40
2023-01-11T14:08:45.820Z,29.98
2023-01-11T14:11:23.612Z,32.90
2023-01-11T14:14:18.123Z,30.83
2023-01-11T14:17:08.362Z,29.17
2023-01-11T14:19:45.568Z,30.38
2023-01-11T14:22:25.101Z,29.38
2023-01-11T14:25:00.031Z,28.30
2023-01-11T14:27:48.709Z,28.80
2023-01-11T14:30:43.452Z,29.52
2023-01-11T14:33:46.242Z,30.02
2023-01-11T14:37:03.016Z,30.63
2023-01-11T14:39:57.574Z,31.02
2023-01-11T14:42:51.027Z,35.22
2023-01-11T14:45:29.570Z,31.63
2023-01-11T14:48:25.148Z,36.70
2023-01-11T14:51:14.816Z,33.35
2023-01-11T14:53:46.593Z,29.52
2023-01-11T14:56:38.003Z,37.60
2023-01-11T14:59:08.074Z,29.23
2023-01-11T15:02:17.099Z,30.13
2023-01-11T15:05:08.249Z,29.58
2023-01-11T15:07:39.251Z,33.78
2023-01-11T15:10:49.167Z,28.55
2023-01-11T15:13:21.350Z,30.17
2023-01-11T15:16:07.928Z,31.27
2023-01-11T15:18:45.655Z,31.77
2023-01-11T15:21:17.466Z,39.30
2023-01-11T15:23:51.731Z,29.98
2023-01-11T15:26:22.368Z,31.73
2023-01-11T15:28:52.479Z,30.52
2023-01-11T15:31:34.539Z,31.48
2023-01-11T15:34:21.998Z,32.10
2023-01-11T15:36:56.288Z,34.92
2023-01-11T15:39:35.765Z,34.17
2023-01-11T15:42:44.476Z,34.70
2023-01-11T15:46:14.611Z,32.13
2023-01-11T15:48:58.123Z,32.05
2023-01-11T15:51:53.794Z,31.58
2023-01-11T15:55:00.519Z,31.85
2023-01-11T15:57:50.429Z,36.40
2023-01-11T16:00:56.881Z,31.02
2023-01-11T16:03:50.035Z,31.48
2023-01-11T16:06:27.708Z,30.55
2023-01-11T16:09:05.616Z,37.92
2023-01-11T16:11:42.221Z,29.90
2023-01-11T16:14:45.995Z,29.13
2023-01-11T16:17:14.956Z,33.00
2023-01-11T16:19:45.417Z,28.73
2023-01-11T16:22:19.636Z,26.83
2023-01-11T16:24:51.032Z,28.02
2023-01-11T16:27:24.798Z,26.85
2023-01-11T16:29:55.412Z,26.92
2023-01-11T16:32:26.977Z,29.50
2023-01-11T16:34:55.860Z,28.27
2023-01-11T16:37:32.744Z,27.42
2023-01-11T16:40:07.452Z,27.25
2023-01-11T16:42:41.015Z,29.13
2023-01-11T16:45:18.303Z,26.85
2023-01-11T16:54:08.201Z,26.88
2023-01-11T16:56:45.776Z,28.30
2023-01-11T16:59:28.116Z,30.05
2023-01-11T17:02:08.880Z,26.80
2023-01-11T17:05:00.803Z,26.65
2023-01-11T17:07:30.892Z,28.60
2023-01-11T17:10:22.173Z,27.58
2023-01-11T17:13:04.078Z,26.73
2023-01-11T17:15:38.526Z,29.50
2023-01-11T17:18:14.790Z,32.00
2023-01-11T17:20:56.087Z,31.55
2023-01-11T17:23:24.358Z,26.35
2023-01-11T17:26:03.908Z,28.75
2023-01-11T17:28:37.676Z,26.02
2023-01-11T17:31:06.746Z,26.85
2023-01-11T17:33:45.318Z,27.88
2023-01-11T17:36:13.888Z,28.65
2023-01-11T17:38:43.600Z,27.05
2023-01-11T17:41:33.877Z,28.52
2023-01-11T17:44:19.550Z,28.83
2023-01-11T17:46:47.996Z,28.48
2023-01-11T17:49:23.996Z,27.90
2023-01-11T17:51:52.280Z,31.67
2023-01-11T17:54:21.775Z,28.08
2023-01-11T17:56:57.223Z,28.85
2023-01-11T17:59:30.423Z,31.60
2023-01-11T18:02:02.824Z,34.90
2023-01-11T18:04:34.314Z,31.85
2023-01-11T18:07:14.617Z,31.85
2023-01-11T18:09:46.956Z,37.28
2023-01-11T18:12:18.148Z,33.58
2023-01-11T18:14:54.358Z,30.15
2023-01-11T18:17:40.464Z,39.35
2023-01-11T18:20:37.836Z,30.73
2023-01-11T18:23:19.540Z,28.48
2023-01-11T18:25:48.187Z,30.23
2023-01-11T18:28:29.038Z,31.13
2023-01-11T18:31:01.825Z,32.38
2023-01-11T18:33:35.164Z,30.73
2023-01-11T18:36:21.210Z,29.27
2023-01-11T18:38:50.458Z,28.38
2023-01-11T18:41:36.730Z,29.85
2023-01-11T18:44:05.238Z,29.77
2023-01-11T18:46:35.241Z,29.80
2023-01-11T18:49:03.749Z,29.23
2023-01-11T18:51:36.959Z,29.38
2023-01-11T18:54:06.815Z,33.38
2023-01-11T18:56:34.939Z,28.77
2023-01-11T18:59:03.542Z,33.45
2023-01-11T19:01:37.646Z,36.08
2023-01-11T19:04:11.514Z,28.25
2023-01-11T19:06:47.476Z,36.13
2023-01-11T19:09:15.846Z,30.45
2023-01-11T19:11:44.204Z,35.33
2023-01-11T19:20:59.877Z,28.85
2023-01-11T19:23:50.328Z,27.38
2023-01-11T19:26:23.568Z,29.25
2023-01-11T19:31:47.203Z,26.48
2023-01-11T19:38:09.095Z,28.73
2023-01-11T19:40:41.335Z,26.10
2023-01-11T19:43:26.612Z,26.33
2023-01-11T19:46:30.828Z,28.08
2023-01-11T19:52:14.516Z,31.73
2023-01-11T19:54:43.636Z,28.35
2023-01-11T19:57:15.737Z,28.92
2023-01-11T19:59:43.919Z,27.23
2023-01-11T20:02:13.359Z,28.88
2023-01-11T20:04:42.231Z,26.75
2023-01-11T20:07:12.311Z,25.38
2023-01-11T20:09:47.815Z,26.70
2023-01-11T20:12:17.464Z,26.45
2023-01-11T20:14:46.518Z,26.83
2023-01-11T20:17:21.207Z,26.92
2023-01-11T20:19:54.586Z,28.92
2023-01-11T20:22:23.798Z,26.60
2023-01-11T20:24:53.241Z,27.20
2023-01-11T20:27:23.172Z,27.42
2023-01-11T20:29:51.472Z,27.80
2023-01-11T20:32:39.695Z,31.80
2023-01-11T20:35:08.815Z,28.63
2023-01-11T20:37:46.034Z,28.77
2023-01-11T20:40:14.528Z,29.52
2023-01-11T20:42:44.061Z,29.75
2023-01-11T20:45:12.437Z,26.48
2023-01-11T20:47:40.389Z,33.30
2023-01-11T20:50:09.732Z,27.40
2023-01-11T20:52:37.799Z,31.60
2023-01-11T20:55:06.931Z,33.33
2023-01-11T20:57:41.225Z,32.80
2023-01-11T21:00:15.373Z,33.40
2023-01-11T21:02:46.519Z,34.95
2023-01-11T21:05:15.265Z,32.85
2023-01-11T21:07:44.317Z,31.30
2023-01-11T21:10:13.148Z,36.90
2023-01-11T21:12:41.389Z,30.13
2023-01-11T21:15:11.989Z,33.28
2023-01-11T21:17:42.210Z,31.95
2023-01-11T21:20:14.643Z,31.90
2023-01-11T21:22:43.422Z,26.60
2023-01-11T21:25:14.333Z,29.40
2023-01-11T21:27:42.510Z,34.53
2023-01-11T21:30:13.643Z,31.05
2023-01-11T21:32:41.974Z,30.02
2023-01-11T21:35:11.103Z,30.85
2023-01-11T21:37:42.408Z,29.95
2023-01-11T21:40:15.555Z,27.85
2023-01-11T21:42:44.763Z,32.83
2023-01-11T21:45:15.027Z,28.13
2023-01-11T21:47:45.660Z,34.10
2023-01-11T21:50:16.914Z,31.27
2023-01-11T21:52:45.182Z,28.75
2023-01-11T21:55:14.182Z,27.45
2023-01-11T21:57:42.406Z,28.60
2023-01-11T22:00:14.463Z,30.13
2023-01-11T22:02:44.996Z,30.63
2023-01-11T22:05:18.455Z,29.15
2023-01-11T22:07:47.076Z,29.15
2023-01-11T22:10:16.191Z,28.52
2023-01-11T22:12:45.984Z,28.17
2023-01-11T22:15:14.259Z,28.38
2023-01-11T22:17:43.856Z,31.55
2023-01-11T22:20:15.224Z,29.20
2023-01-11T22:22:43.502Z,30.80
2023-01-11T22:25:12.001Z,32.90
2023-01-11T22:27:40.023Z,30.60
2023-01-11T22:30:12.579Z,29.67
2023-01-11T22:32:41.812Z,31.00
2023-01-11T22:35:11.900Z,34.78
2023-01-11T22:37:43.230Z,33.75
2023-01-11T22:40:12.447Z,29.25
2023-01-11T22:42:40.582Z,30.73
2023-01-11T22:45:10.459Z,32.53
2023-01-11T22:47:38.831Z,30.15
2023-01-11T22:50:07.565Z,32.40
2023-01-11T22:52:37.733Z,28.52
2023-01-11T22:55:06.623Z,29.33
2023-01-11T22:57:34.904Z,31.70
2023-01-11T23:00:04.733Z,31.23
2023-01-11T23:02:32.842Z,31.23
2023-01-11T23:05:00.897Z,32.58
2023-01-11T23:07:28.864Z,28.77
2023-01-11T23:09:58.638Z,34.78
2023-01-11T23:12:44.205Z,33.03
2023-01-11T23:15:12.573Z,35.65
2023-01-11T23:17:40.614Z,34.85
2023-01-11T23:20:10.145Z,31.00
2023-01-11T23:22:39.225Z,33.45
2023-01-11T23:25:10.105Z,32.67
2023-01-11T23:27:40.520Z,35.58
2023-01-11T23:30:10.123Z,34.03
2023-01-11T23:32:38.611Z,32.55
2023-01-11T23:35:09.015Z,33.58
2023-01-11T23:37:39.539Z,33.20
2023-01-11T23:40:11.336Z,36.50
2023-01-11T23:42:38.564Z,36.90
2023-01-11T23:45:07.499Z,37.05
2023-01-11T23:47:34.623Z,39.45
2023-01-11T23:50:02.585Z,35.08
2023-01-11T23:52:34.583Z,37.40
2023-01-11T23:55:02.592Z,32.90
2023-01-11T23:57:32.319Z,41.40
